createdAt,value
2018-05-01T00:01:11.780Z,96.80
2018-05-01T00:03:40.136Z,97.20
2018-05-01T00:06:08.449Z,97.20
2018-05-01T00:08:36.840Z,98.10
2018-05-01T00:11:05.933Z,98.60
2018-05-01T00:13:35.015Z,97.40
2018-05-01T00:16:03.390Z,97.40
2018-05-01T00:18:31.778Z,97.40
2018-05-01T00:21:01.016Z,98.60
2018-05-01T00:23:30.180Z,98.60
2018-05-01T00:25:59.282Z,98.30
2018-05-01T00:28:27.618Z,98.30
2018-05-01T00:30:55.948Z,98.60
2018-05-01T00:33:24.399Z,99.50
2018-05-01T00:35:53.497Z,99.10
2018-05-01T00:38:22.578Z,99.90
2018-05-01T00:40:50.929Z,99.90
2018-05-01T00:43:19.256Z,99.80
2018-05-01T00:45:48.482Z,99.90
2018-05-01T00:48:16.812Z,99.90
2018-05-01T00:50:45.162Z,99.90
2018-05-01T00:53:13.494Z,99.90
2018-05-01T00:55:41.830Z,99.60
2018-05-01T00:58:10.179Z,99.90
2018-05-01T01:00:38.693Z,99.90
2018-05-01T01:03:07.049Z,99.90
2018-05-01T01:05:35.421Z,99.90
2018-05-01T01:08:03.741Z,99.90
2018-05-01T01:10:32.827Z,99.90
2018-05-01T01:13:01.158Z,99.90
2018-05-01T01:15:29.460Z,99.90
2018-05-01T01:17:57.776Z,99.90
2018-05-01T01:20:26.882Z,99.90
2018-05-01T01:22:55.279Z,99.90
2018-05-01T01:25:23.605Z,99.90
2018-05-01T01:27:51.946Z,99.90
2018-05-01T01:30:20.287Z,99.90
2018-05-01T01:32:52.552Z,99.90
2018-05-01T01:35:21.165Z,99.90
2018-05-01T01:37:49.049Z,99.90
2018-05-01T01:40:16.891Z,99.90
2018-05-01T01:42:44.787Z,99.90
2018-05-01T01:45:12.619Z,99.90
2018-05-01T01:47:40.449Z,99.90
2018-05-01T01:50:09.084Z,99.90
2018-05-01T01:52:36.910Z,99.90
2018-05-01T01:55:05.513Z,99.90
2018-05-01T01:57:33.410Z,99.90
2018-05-01T02:00:01.279Z,99.90
2018-05-01T02:02:29.091Z,99.90
2018-05-01T02:04:57.053Z,99.90
2018-05-01T02:07:25.639Z,99.90
2018-05-01T02:09:54.241Z,99.90
2018-05-01T02:12:22.196Z,99.90
2018-05-01T02:14:50.033Z,99.90
2018-05-01T02:17:17.872Z,99.90
2018-05-01T02:19:45.733Z,99.90
2018-05-01T02:22:13.589Z,99.90
2018-05-01T02:24:41.425Z,99.90
2018-05-01T02:27:09.261Z,99.90
2018-05-01T02:29:37.119Z,99.90
2018-05-01T02:32:04.960Z,99.90
2018-05-01T02:34:32.796Z,99.90
2018-05-01T02:37:00.965Z,99.90
2018-05-01T02:39:28.814Z,99.90
2018-05-01T02:41:57.396Z,99.90
2018-05-01T02:44:26.011Z,99.90
2018-05-01T02:46:53.864Z,99.90
2018-05-01T02:49:21.691Z,99.90
2018-05-01T02:51:49.628Z,99.90
2018-05-01T02:54:17.456Z,99.90
2018-05-01T02:56:45.809Z,99.90
2018-05-01T02:59:13.672Z,99.90
2018-05-01T03:01:41.497Z,99.90
2018-05-01T03:04:09.471Z,99.90
2018-05-01T03:06:37.821Z,99.90
2018-05-01T03:09:05.656Z,99.90
2018-05-01T03:11:34.237Z,99.90
2018-05-01T03:14:02.901Z,99.90
2018-05-01T03:16:30.754Z,99.90
2018-05-01T03:18:58.624Z,99.90
2018-05-01T03:21:26.456Z,99.90
2018-05-01T03:23:54.262Z,99.90
2018-05-01T03:26:22.126Z,99.90
2018-05-01T03:28:50.064Z,99.90
2018-05-01T03:31:17.901Z,99.90
2018-05-01T03:33:45.709Z,99.90
2018-05-01T03:36:13.599Z,99.90
2018-05-01T03:38:41.445Z,99.90
2018-05-01T03:41:09.311Z,99.90
2018-05-01T03:43:37.157Z,99.90
2018-05-01T03:46:05.017Z,99.90
2018-05-01T03:48:32.870Z,99.90
2018-05-01T03:51:00.709Z,99.90
2018-05-01T03:53:29.321Z,99.90
2018-05-01T03:55:57.200Z,99.90
2018-05-01T03:58:25.042Z,99.90
2018-05-01T04:00:52.904Z,99.90
2018-05-01T04:03:21.097Z,99.90
2018-05-01T04:05:48.933Z,99.90
2018-05-01T04:08:17.541Z,99.90
2018-05-01T04:10:45.384Z,99.90
2018-05-01T04:13:14.018Z,99.90
2018-05-01T04:15:42.197Z,99.90
2018-05-01T04:18:10.041Z,99.90
2018-05-01T04:20:37.881Z,99.90
2018-05-01T04:23:05.746Z,99.90
2018-05-01T04:25:33.585Z,99.90
2018-05-01T04:28:01.440Z,99.90
2018-05-01T04:30:29.283Z,99.90
2018-05-01T04:32:57.165Z,99.90
2018-05-01T04:35:25.071Z,99.90
2018-05-01T04:37:52.918Z,99.90
2018-05-01T04:40:20.735Z,99.90
2018-05-01T04:42:48.599Z,99.90
2018-05-01T04:45:16.453Z,99.90
2018-05-01T04:47:45.072Z,99.90
2018-05-01T04:50:12.883Z,99.90
2018-05-01T04:52:40.737Z,99.90
2018-05-01T04:55:09.356Z,99.90
2018-05-01T04:57:37.221Z,99.90
2018-05-01T05:00:05.094Z,99.90
2018-05-01T05:02:32.911Z,99.90
2018-05-01T05:05:00.786Z,99.90
2018-05-01T05:07:29.390Z,99.90
2018-05-01T05:09:57.225Z,99.90
2018-05-01T05:12:25.835Z,99.90
2018-05-01T05:14:53.692Z,99.90
2018-05-01T05:17:22.327Z,99.90
2018-05-01T05:19:50.161Z,99.90
2018-05-01T05:22:18.019Z,99.90
2018-05-01T05:24:45.835Z,99.90
2018-05-01T05:27:13.808Z,99.90
2018-05-01T05:29:41.650Z,99.90
2018-05-01T05:32:09.492Z,99.90
2018-05-01T05:34:37.385Z,99.90
2018-05-01T05:37:05.237Z,99.90
2018-05-01T05:39:33.055Z,99.90
2018-05-01T05:42:01.658Z,99.90
2018-05-01T05:44:29.527Z,99.90
2018-05-01T05:46:57.396Z,99.90
2018-05-01T05:49:25.855Z,99.90
2018-05-01T05:51:53.641Z,99.90
2018-05-01T05:54:21.536Z,99.90
2018-05-01T05:56:49.409Z,99.90
2018-05-01T05:59:17.234Z,99.90
2018-05-01T06:01:45.060Z,99.90
2018-05-01T06:04:12.908Z,99.90
2018-05-01T06:06:40.763Z,99.90
2018-05-01T06:09:08.640Z,99.90
2018-05-01T06:11:36.455Z,99.90
2018-05-01T06:14:04.304Z,99.90
2018-05-01T06:16:32.908Z,99.90
2018-05-01T06:19:00.765Z,99.90
2018-05-01T06:21:29.361Z,99.90
2018-05-01T06:23:57.210Z,99.90
2018-05-01T06:26:25.813Z,99.90
2018-05-01T06:28:53.674Z,99.90
2018-05-01T06:31:21.699Z,99.90
2018-05-01T06:33:49.506Z,99.90
2018-05-01T06:36:17.356Z,99.90
2018-05-01T06:38:45.977Z,99.90
2018-05-01T06:41:13.850Z,99.90
2018-05-01T06:43:41.695Z,99.90
2018-05-01T06:46:09.653Z,99.90
2018-05-01T06:48:37.499Z,99.90
2018-05-01T06:51:06.102Z,99.90
2018-05-01T06:53:33.983Z,99.90
2018-05-01T06:56:01.829Z,99.90
2018-05-01T06:58:29.687Z,99.90
2018-05-01T07:00:58.288Z,99.90
2018-05-01T07:03:26.266Z,99.90
2018-05-01T07:05:54.105Z,99.90
2018-05-01T07:08:22.711Z,99.90
2018-05-01T07:10:50.574Z,99.90
2018-05-01T07:13:18.416Z,99.90
2018-05-01T07:15:47.106Z,99.90
2018-05-01T07:18:14.925Z,99.90
2018-05-01T07:20:42.813Z,99.90
2018-05-01T07:23:10.670Z,99.90
2018-05-01T07:25:38.523Z,99.90
2018-05-01T07:28:06.355Z,99.90
2018-05-01T07:30:35.081Z,99.90
2018-05-01T07:33:02.933Z,99.90
2018-05-01T07:35:30.788Z,99.90
2018-05-01T07:37:58.665Z,99.90
2018-05-01T07:40:26.498Z,99.90
2018-05-01T07:42:54.328Z,99.90
2018-05-01T07:45:22.214Z,99.90
2018-05-01T07:47:50.071Z,99.90
2018-05-01T07:50:18.689Z,99.90
2018-05-01T07:52:46.549Z,99.90
2018-05-01T07:55:14.380Z,99.90
2018-05-01T07:57:43.027Z,99.90
2018-05-01T08:00:10.861Z,99.90
2018-05-01T08:02:38.723Z,99.90
2018-05-01T08:05:06.600Z,99.90
2018-05-01T08:07:34.417Z,99.90
2018-05-01T08:10:02.291Z,99.90
2018-05-01T08:12:30.912Z,99.90
2018-05-01T08:14:58.891Z,99.90
2018-05-01T08:17:26.723Z,99.90
2018-05-01T08:19:55.334Z,99.90
2018-05-01T08:22:23.215Z,99.90
2018-05-01T08:24:51.069Z,99.90
2018-05-01T08:27:18.934Z,99.90
2018-05-01T08:29:46.781Z,99.90
2018-05-01T08:32:14.637Z,99.90
2018-05-01T08:34:42.468Z,99.90
2018-05-01T08:37:10.635Z,99.90
2018-05-01T08:39:38.492Z,99.90
2018-05-01T08:42:06.345Z,99.90
2018-05-01T08:44:34.217Z,99.90
2018-05-01T08:47:02.081Z,99.90
2018-05-01T08:49:29.928Z,99.90
2018-05-01T08:51:57.895Z,99.90
2018-05-01T08:54:25.754Z,99.90
2018-05-01T08:56:53.590Z,99.90
2018-05-01T08:59:22.239Z,99.90
2018-05-01T09:01:50.060Z,99.90
2018-05-01T09:04:18.011Z,99.90
2018-05-01T09:06:45.794Z,99.90
2018-05-01T09:09:14.017Z,99.90
2018-05-01T09:11:41.880Z,99.90
2018-05-01T09:14:10.726Z,99.90
2018-05-01T09:16:38.630Z,99.90
2018-05-01T09:19:06.472Z,99.90
2018-05-01T09:21:34.311Z,99.90
2018-05-01T09:24:02.290Z,99.90
2018-05-01T09:26:30.140Z,99.90
2018-05-01T09:28:57.979Z,99.90
2018-05-01T09:31:25.849Z,99.90
2018-05-01T09:33:53.696Z,99.90
2018-05-01T09:36:21.570Z,99.90
2018-05-01T09:38:50.333Z,99.90
2018-05-01T09:41:18.571Z,99.90
2018-05-01T09:43:46.548Z,99.90
2018-05-01T09:46:14.420Z,99.90
2018-05-01T09:48:43.523Z,99.90
2018-05-01T09:51:11.389Z,99.90
2018-05-01T09:53:39.711Z,99.90
2018-05-01T09:56:08.060Z,99.90
2018-05-01T09:58:36.409Z,99.90
2018-05-01T10:01:05.165Z,99.90
2018-05-01T10:03:34.290Z,99.90
2018-05-01T10:06:02.618Z,99.90
2018-05-01T10:08:31.462Z,99.90
2018-05-01T10:10:59.797Z,99.90
2018-05-01T10:13:28.127Z,99.90
2018-05-01T10:15:56.485Z,99.90
2018-05-01T10:18:24.964Z,99.90
2018-05-01T10:20:53.297Z,99.90
2018-05-01T10:23:21.641Z,99.90
2018-05-01T10:25:50.032Z,99.90
2018-05-01T10:28:18.393Z,99.90
2018-05-01T10:30:46.750Z,99.90
2018-05-01T10:33:15.109Z,99.90
2018-05-01T10:35:44.348Z,99.90
2018-05-01T10:38:12.674Z,99.90
2018-05-01T10:40:41.783Z,99.90
2018-05-01T10:43:10.942Z,99.90
2018-05-01T10:45:39.328Z,99.90
2018-05-01T10:48:08.107Z,99.90
2018-05-01T10:50:36.832Z,99.90
2018-05-01T10:53:05.173Z,99.90
2018-05-01T10:55:34.866Z,99.90
2018-05-01T10:58:03.238Z,99.90
2018-05-01T11:00:33.321Z,99.90
2018-05-01T11:03:01.665Z,99.90
2018-05-01T11:05:30.409Z,99.90
2018-05-01T11:08:03.637Z,99.90
2018-05-01T11:10:32.707Z,99.90
2018-05-01T11:13:01.246Z,99.90
2018-05-01T11:15:29.610Z,99.90
2018-05-01T11:17:58.770Z,99.90
2018-05-01T11:20:27.230Z,99.90
2018-05-01T11:22:56.112Z,99.90
2018-05-01T11:25:24.435Z,99.90
2018-05-01T11:27:53.501Z,99.90
2018-05-01T11:30:21.844Z,99.90
2018-05-01T11:32:50.185Z,99.90
2018-05-01T11:35:18.527Z,99.90
2018-05-01T11:37:46.980Z,99.90
2018-05-01T11:40:15.301Z,99.90
2018-05-01T11:42:43.620Z,99.90
2018-05-01T11:45:12.741Z,99.90
2018-05-01T11:47:41.057Z,99.90
2018-05-01T11:50:09.528Z,99.90
2018-05-01T11:52:37.871Z,99.90
2018-05-01T11:55:06.267Z,99.90
2018-05-01T11:57:34.637Z,99.90
2018-05-01T12:00:02.990Z,99.90
2018-05-01T12:02:31.451Z,99.90
2018-05-01T12:04:59.738Z,99.90
2018-05-01T12:07:28.093Z,99.90
2018-05-01T12:09:56.455Z,99.90
2018-05-01T12:12:24.806Z,99.90
2018-05-01T12:14:53.173Z,99.90
2018-05-01T12:17:21.497Z,99.90
2018-05-01T12:19:49.863Z,99.90
2018-05-01T12:22:18.215Z,99.90
2018-05-01T12:24:46.579Z,99.90
2018-05-01T12:27:14.920Z,99.90
2018-05-01T12:29:44.026Z,99.90
2018-05-01T12:32:13.271Z,99.90
2018-05-01T12:34:41.613Z,99.90
2018-05-01T12:37:10.040Z,99.20
2018-05-01T12:39:38.394Z,99.90
2018-05-01T12:42:06.857Z,98.90
2018-05-01T12:44:35.238Z,98.80
2018-05-01T12:47:03.616Z,98.80
2018-05-01T12:49:31.970Z,97.00
2018-05-01T12:52:01.092Z,97.70
2018-05-01T12:54:29.445Z,97.70
2018-05-01T12:56:58.568Z,96.30
2018-05-01T12:59:27.001Z,96.50
2018-05-01T13:01:55.344Z,98.30
2018-05-01T13:04:23.691Z,96.70
2018-05-01T13:06:52.027Z,98.00
2018-05-01T13:09:20.390Z,98.40
2018-05-01T13:11:48.716Z,97.60
2018-05-01T13:14:17.074Z,95.60
2018-05-01T13:16:46.204Z,94.90
2018-05-01T13:19:14.563Z,94.90
2018-05-01T13:21:42.906Z,94.50
2018-05-01T13:24:11.372Z,93.10
2018-05-01T13:26:39.718Z,93.00
2018-05-01T13:29:08.053Z,92.10
2018-05-01T13:31:37.175Z,90.00
2018-05-01T13:34:05.512Z,90.00
2018-05-01T13:36:33.869Z,91.00
2018-05-01T13:39:02.249Z,92.00
2018-05-01T13:41:30.676Z,90.50
2018-05-01T13:43:59.098Z,88.70
2018-05-01T13:46:27.453Z,89.50
2018-05-01T13:48:55.880Z,84.70
2018-05-01T13:51:24.198Z,81.30
2018-05-01T13:53:52.566Z,83.90
2018-05-01T13:56:20.910Z,87.00
2018-05-01T13:58:49.273Z,81.80
2018-05-01T14:01:17.623Z,81.60
2018-05-01T14:03:45.986Z,85.00
2018-05-01T14:06:14.309Z,81.60
2018-05-01T14:08:42.683Z,86.50
2018-05-01T14:11:11.011Z,79.10
2018-05-01T14:13:39.357Z,81.60
2018-05-01T14:16:07.740Z,82.80
2018-05-01T14:18:36.841Z,81.80
2018-05-01T14:21:05.983Z,80.10
2018-05-01T14:23:34.737Z,80.20
2018-05-01T14:26:04.000Z,73.00
2018-05-01T14:28:32.375Z,72.90
2018-05-01T14:31:00.719Z,70.10
2018-05-01T14:33:29.073Z,67.50
2018-05-01T14:35:57.399Z,68.20
2018-05-01T14:38:25.747Z,72.90
2018-05-01T14:40:54.157Z,67.70
2018-05-01T14:43:23.034Z,69.20
2018-05-01T14:45:51.371Z,67.80
2018-05-01T14:48:19.686Z,68.00
2018-05-01T14:50:48.064Z,71.00
2018-05-01T14:53:16.407Z,71.20
2018-05-01T14:55:44.763Z,68.90
2018-05-01T14:58:13.885Z,69.40
2018-05-01T15:00:42.231Z,68.90
2018-05-01T15:03:11.336Z,65.80
2018-05-01T15:05:40.481Z,64.60
2018-05-01T15:08:09.888Z,66.70
2018-05-01T15:10:38.245Z,66.70
2018-05-01T15:13:06.567Z,67.40
2018-05-01T15:15:34.915Z,68.30
2018-05-01T15:18:03.260Z,67.00
2018-05-01T15:20:31.603Z,66.30
2018-05-01T15:22:59.964Z,67.30
2018-05-01T15:25:28.326Z,67.80
2018-05-01T15:27:56.721Z,67.00
2018-05-01T15:30:25.184Z,69.10
2018-05-01T15:32:53.489Z,65.50
2018-05-01T15:35:22.625Z,64.50
2018-05-01T15:37:50.971Z,64.40
2018-05-01T15:40:20.105Z,68.10
2018-05-01T15:42:48.465Z,68.10
2018-05-01T15:45:16.888Z,66.50
2018-05-01T15:47:45.980Z,65.20
2018-05-01T15:50:14.346Z,65.10
2018-05-01T15:52:42.695Z,62.30
2018-05-01T15:55:11.162Z,65.70
2018-05-01T15:57:40.278Z,61.50
2018-05-01T16:00:08.628Z,61.50
2018-05-01T16:02:37.834Z,60.50
2018-05-01T16:05:06.933Z,61.00
2018-05-01T16:07:35.251Z,60.90
2018-05-01T16:10:03.658Z,61.90
2018-05-01T16:12:32.004Z,60.30
2018-05-01T16:15:00.376Z,60.70
2018-05-01T16:17:28.730Z,59.70
2018-05-01T16:19:57.125Z,60.60
2018-05-01T16:22:25.443Z,59.60
2018-05-01T16:24:53.798Z,56.40
2018-05-01T16:27:22.166Z,54.60
2018-05-01T16:29:50.582Z,54.60
2018-05-01T16:32:18.933Z,54.50
2018-05-01T16:34:47.316Z,54.10
2018-05-01T16:37:16.160Z,52.50
2018-05-01T16:39:44.519Z,53.60
2018-05-01T16:42:13.621Z,55.00
2018-05-01T16:44:42.752Z,54.40
2018-05-01T16:47:11.074Z,54.20
2018-05-01T16:49:39.440Z,55.70
2018-05-01T16:52:07.776Z,55.00
2018-05-01T16:54:36.168Z,54.40
2018-05-01T16:57:04.530Z,56.30
2018-05-01T16:59:33.650Z,58.50
2018-05-01T17:02:02.022Z,58.50
2018-05-01T17:04:30.487Z,59.10
2018-05-01T17:06:58.740Z,59.00
2018-05-01T17:09:27.090Z,58.50
2018-05-01T17:11:56.218Z,59.60
2018-05-01T17:14:24.572Z,59.60
2018-05-01T17:16:53.700Z,61.80
2018-05-01T17:19:22.043Z,61.80
2018-05-01T17:21:51.152Z,62.50
2018-05-01T17:24:19.543Z,62.50
2018-05-01T17:26:47.917Z,64.90
2018-05-01T17:29:16.377Z,65.90
2018-05-01T17:31:44.649Z,66.40
2018-05-01T17:34:13.777Z,70.20
2018-05-01T17:36:42.125Z,70.20
2018-05-01T17:39:11.244Z,72.20
2018-05-01T17:41:39.581Z,72.10
2018-05-01T17:44:07.943Z,73.50
2018-05-01T17:46:36.275Z,75.50
2018-05-01T17:49:04.724Z,76.90
2018-05-01T17:51:33.084Z,74.60
2018-05-01T17:54:01.427Z,75.70
2018-05-01T17:56:29.805Z,77.40
2018-05-01T17:58:58.167Z,78.70
2018-05-01T18:01:26.536Z,78.20
2018-05-01T18:03:54.878Z,78.50
2018-05-01T18:06:23.245Z,81.40
2018-05-01T18:08:51.582Z,80.30
2018-05-01T18:11:19.955Z,83.00
2018-05-01T18:13:48.297Z,85.60
2018-05-01T18:16:17.086Z,86.20
2018-05-01T18:18:45.446Z,87.50
2018-05-01T18:21:13.772Z,89.60
2018-05-01T18:23:42.434Z,92.40
2018-05-01T18:26:11.530Z,98.40
2018-05-01T18:28:39.873Z,98.30
2018-05-01T18:31:08.226Z,97.60
2018-05-01T18:33:36.588Z,99.90
2018-05-01T18:36:04.977Z,99.90
2018-05-01T18:38:33.314Z,99.90
2018-05-01T18:41:02.427Z,99.90
2018-05-01T18:43:30.814Z,99.90
2018-05-01T18:45:59.963Z,99.90
2018-05-01T18:48:28.339Z,99.90
2018-05-01T18:50:56.877Z,99.90
2018-05-01T18:53:25.149Z,99.90
2018-05-01T18:55:53.506Z,99.90
2018-05-01T18:58:22.726Z,99.90
2018-05-01T19:00:51.066Z,99.90
2018-05-01T19:03:20.191Z,99.90
2018-05-01T19:05:48.555Z,99.90
2018-05-01T19:08:17.655Z,99.90
2018-05-01T19:10:46.002Z,99.90
2018-05-01T19:13:14.332Z,99.90
2018-05-01T19:15:43.463Z,99.90
2018-05-01T19:18:11.793Z,99.90
2018-05-01T19:20:40.131Z,99.90
2018-05-01T19:23:08.515Z,99.90
2018-05-01T19:25:37.111Z,99.90
2018-05-01T19:28:06.206Z,99.90
2018-05-01T19:30:35.372Z,99.90
2018-05-01T19:33:03.735Z,99.90
2018-05-01T19:35:32.072Z,99.90
2018-05-01T19:38:00.513Z,99.90
2018-05-01T19:40:28.854Z,99.90
2018-05-01T19:42:57.200Z,99.90
2018-05-01T19:45:25.626Z,99.90
2018-05-01T19:47:53.966Z,99.90
2018-05-01T19:50:22.277Z,99.90
2018-05-01T19:52:50.621Z,99.90
2018-05-01T19:55:18.986Z,99.90
2018-05-01T19:57:47.354Z,99.90
2018-05-01T20:00:16.488Z,99.90
2018-05-01T20:02:44.819Z,99.90
2018-05-01T20:05:14.371Z,99.90
2018-05-01T20:07:42.699Z,99.90
2018-05-01T20:10:11.798Z,99.90
2018-05-01T20:12:40.962Z,99.90
2018-05-01T20:15:09.306Z,99.90
2018-05-01T20:17:37.840Z,99.90
2018-05-01T20:20:06.228Z,99.90
2018-05-01T20:22:35.654Z,99.90
2018-05-01T20:25:04.025Z,99.90
2018-05-01T20:27:32.646Z,99.90
2018-05-01T20:30:00.978Z,99.90
2018-05-01T20:32:30.220Z,99.90
2018-05-01T20:34:58.558Z,99.90
2018-05-01T20:37:26.915Z,99.90
2018-05-01T20:39:56.142Z,99.90
2018-05-01T20:42:24.942Z,99.90
2018-05-01T20:44:53.925Z,99.90
2018-05-01T20:47:22.333Z,99.90
2018-05-01T20:49:51.542Z,99.90
2018-05-01T20:52:19.902Z,99.90
2018-05-01T20:54:48.462Z,99.90
2018-05-01T20:57:16.946Z,99.90
2018-05-01T20:59:45.269Z,99.90
2018-05-01T21:02:13.574Z,99.90
2018-05-01T21:04:42.698Z,99.90
2018-05-01T21:07:11.024Z,99.90
2018-05-01T21:09:39.377Z,99.90
2018-05-01T21:12:07.709Z,99.90
2018-05-01T21:14:36.062Z,99.90
2018-05-01T21:17:04.790Z,99.90
2018-05-01T21:19:33.911Z,99.90
2018-05-01T21:22:03.407Z,99.90
2018-05-01T21:24:31.995Z,99.90
2018-05-01T21:27:01.351Z,99.90
2018-05-01T21:29:29.742Z,99.90
2018-05-01T21:31:58.473Z,99.90
2018-05-01T21:34:28.007Z,99.90
2018-05-01T21:36:56.915Z,99.90
2018-05-01T21:39:25.522Z,99.90
2018-05-01T21:41:54.339Z,99.90
2018-05-01T21:44:22.797Z,99.90
2018-05-01T21:46:51.173Z,99.90
2018-05-01T21:49:20.269Z,99.90
2018-05-01T21:51:48.627Z,99.90
2018-05-01T21:54:17.062Z,99.90
2018-05-01T21:56:45.532Z,99.90
2018-05-01T21:59:14.480Z,99.90
2018-05-01T22:01:43.039Z,99.90
2018-05-01T22:04:12.494Z,99.90
2018-05-01T22:06:41.071Z,99.90
2018-05-01T22:09:10.740Z,99.90
2018-05-01T22:11:39.132Z,99.90
2018-05-01T22:14:07.511Z,99.90
2018-05-01T22:16:35.888Z,99.90
2018-05-01T22:19:04.265Z,99.90
2018-05-01T22:21:32.632Z,99.90
2018-05-01T22:24:01.723Z,99.90
2018-05-01T22:26:30.857Z,99.90
2018-05-01T22:28:59.184Z,99.90
2018-05-01T22:31:28.298Z,99.90
2018-05-01T22:33:56.636Z,99.90
2018-05-01T22:36:25.013Z,99.90
2018-05-01T22:38:53.360Z,99.90
2018-05-01T22:41:21.699Z,99.90
2018-05-01T22:43:50.831Z,99.90
2018-05-01T22:46:19.146Z,99.90
2018-05-01T22:48:47.497Z,99.90
2018-05-01T22:51:15.847Z,99.90
2018-05-01T22:53:44.205Z,99.90
2018-05-01T22:56:12.572Z,99.90
2018-05-01T22:58:41.669Z,99.90
2018-05-01T23:01:11.121Z,99.90
2018-05-01T23:03:39.472Z,99.90
2018-05-01T23:06:07.855Z,99.90
2018-05-01T23:08:36.188Z,99.90
2018-05-01T23:11:04.529Z,99.90
2018-05-01T23:13:32.878Z,99.90
2018-05-01T23:16:01.213Z,99.90
2018-05-01T23:18:29.584Z,99.90
2018-05-01T23:20:57.902Z,99.90
2018-05-01T23:23:26.618Z,99.90
2018-05-01T23:25:54.949Z,99.90
2018-05-01T23:28:24.046Z,99.90
2018-05-01T23:30:53.184Z,99.90
2018-05-01T23:33:21.544Z,99.90
2018-05-01T23:35:49.877Z,99.90
2018-05-01T23:38:18.230Z,99.90
2018-05-01T23:40:46.538Z,99.90
2018-05-01T23:43:14.904Z,99.90
2018-05-01T23:45:43.248Z,99.90
2018-05-01T23:48:11.565Z,99.90
2018-05-01T23:50:39.913Z,99.90
2018-05-01T23:53:08.397Z,99.90
2018-05-01T23:55:36.744Z,99.90
2018-05-01T23:58:05.070Z,99.90
